Time;durP1;ratioP1;P1;durP2;ratioP2;P2;SDS_P1;SDS_P2;PMS_P1;PMS_P2;Temp;Humidity;BMP_temperature;BMP_pressure;BME280_temperature;BME280_humidity;BME280_pressure;Samples;Min_cycle;Max_cycle;Signal;HPM_P1;HPM_P2
2021/03/08 00:00:41;;;;;;;;;;;;;;;29.46;45.64;101316.72;5064359;28;66776;-34
2021/03/08 00:03:11;;;;;;;;;;;;;;;29.53;46.04;101322.97;5073764;27;69640;-34
2021/03/08 00:05:40;;;;;;;;;;;;;;;29.54;46.10;101314.69;5076069;28;67270;-32
2021/03/08 00:08:10;;;;;;;;;;;;;;;29.66;46.36;101317.66;5075153;27;69875;-33
2021/03/08 00:10:39;;;;;;;;;;;;;;;29.71;46.42;101325.19;5073334;27;66339;-32
2021/03/08 00:13:08;;;;;;;;;;;;;;;29.75;46.11;101329.97;5072978;27;70244;-35
2021/03/08 00:15:37;;;;;;;;;;;;;;;29.82;46.79;101335.41;5065318;27;65601;-34
2021/03/08 00:18:06;;;;;;;;;;;;;;;29.90;47.60;101334.41;5079138;27;70118;-34
2021/03/08 00:20:35;;;;;;;;;;;;;;;30.00;48.44;101340.25;5078917;27;66309;-33
2021/03/08 00:23:04;;;;;;;;;;;;;;;29.92;51.74;101348.53;5074627;27;70021;-35
2021/03/08 00:25:33;;;;;;;;;;;;;;;29.76;53.15;101347.88;5067574;28;65530;-34
2021/03/08 00:28:02;;;;;;;;;;;;;;;29.92;51.36;101343.13;5073919;27;70301;-35
2021/03/08 00:30:31;;;;;;;;;;;;;;;30.08;51.20;101348.19;5062229;28;66266;-32
2021/03/08 00:33:01;;;;;;;;;;;;;;;30.15;50.53;101359.03;5063346;27;69276;-35
2021/03/08 00:35:30;;;;;;;;;;;;;;;30.23;51.00;101348.06;5077065;27;66315;-33
2021/03/08 00:37:59;;;;;;;;;;;;;;;30.22;52.03;101347.22;5087435;27;70019;-34
2021/03/08 00:40:28;;;;;;;;;;;;;;;30.21;52.37;101341.97;5073117;27;65710;-35
2021/03/08 00:42:57;;;;;;;;;;;;;;;30.28;50.96;101349.13;5075487;27;69135;-35
2021/03/08 00:45:26;;;;;;;;;;;;;;;30.36;50.98;101350.78;5077576;27;67256;-34
2021/03/08 00:48:06;;;;;;;;;;;;;;;30.37;50.38;101346.19;5063528;27;69513;-34
2021/03/08 00:50:39;;;;;;;;;;;;;;;30.37;50.74;101351.59;5078340;27;65611;-33
2021/03/08 00:53:15;;;;;;;;;;;;;;;30.42;50.38;101354.53;5055871;27;70091;-35
2021/03/08 00:55:48;;;;;;;;;;;;;;;30.43;50.44;101361.63;5058608;27;66083;-33
2021/03/08 00:58:17;;;;;;;;;;;;;;;30.40;50.42;101368.28;5061671;27;70288;-33
2021/03/08 01:00:48;;;;;;;;;;;;;;;30.46;49.81;101370.16;5085900;27;66299;-35
2021/03/08 01:03:17;;;;;;;;;;;;;;;30.48;49.98;101383.50;5072820;27;69867;-34
2021/03/08 01:05:50;;;;;;;;;;;;;;;30.46;50.29;101372.03;5074529;27;66400;-33
2021/03/08 01:08:32;;;;;;;;;;;;;;;30.51;49.44;101374.97;5074137;28;70489;-34
2021/03/08 01:11:01;;;;;;;;;;;;;;;30.46;50.05;101381.00;5073540;28;66294;-33
2021/03/08 01:13:36;;;;;;;;;;;;;;;30.48;49.17;101376.22;5072568;28;69882;-35
2021/03/08 01:16:05;;;;;;;;;;;;;;;30.50;49.22;101384.94;5072203;27;66104;-33
2021/03/08 01:18:34;;;;;;;;;;;;;;;30.54;49.52;101382.69;5074612;28;70052;-33
2021/03/08 01:21:03;;;;;;;;;;;;;;;30.59;49.17;101382.91;5073919;28;65326;-33
2021/03/08 01:23:32;;;;;;;;;;;;;;;30.62;48.90;101382.47;5074732;27;70063;-34
2021/03/08 01:26:01;;;;;;;;;;;;;;;30.62;48.27;101385.19;5074348;27;66411;-34
2021/03/08 01:28:30;;;;;;;;;;;;;;;30.58;49.07;101389.34;5073690;28;69973;-34
2021/03/08 01:30:59;;;;;;;;;;;;;;;30.61;48.96;101397.03;5071141;28;66061;-33
2021/03/08 01:33:28;;;;;;;;;;;;;;;30.61;48.25;101399.75;5075922;27;69488;-33
2021/03/08 01:35:57;;;;;;;;;;;;;;;30.60;48.42;101400.81;5062429;27;65087;-35
2021/03/08 01:38:26;;;;;;;;;;;;;;;30.65;48.57;101403.72;5072627;27;70069;-33
2021/03/08 01:40:55;;;;;;;;;;;;;;;30.67;48.06;101398.94;5072960;27;68056;-34
2021/03/08 01:43:25;;;;;;;;;;;;;;;30.68;48.60;101402.47;5075567;27;71903;-34
2021/03/08 01:45:53;;;;;;;;;;;;;;;30.67;48.57;101404.38;5073683;28;66450;-32
2021/03/08 01:48:23;;;;;;;;;;;;;;;30.68;48.69;101399.78;5073310;27;70280;-35
2021/03/08 01:50:52;;;;;;;;;;;;;;;30.72;47.99;101404.56;5076095;27;65711;-37
2021/03/08 01:53:22;;;;;;;;;;;;;;;30.74;48.51;101404.34;5066712;27;69827;-34
2021/03/08 01:55:51;;;;;;;;;;;;;;;30.75;48.37;101407.91;5073414;28;65266;-33
2021/03/08 01:58:20;;;;;;;;;;;;;;;30.74;48.35;101415.19;5068043;28;69904;-33
2021/03/08 02:00:49;;;;;;;;;;;;;;;30.72;48.14;101407.25;5065151;28;66569;-35
2021/03/08 02:03:20;;;;;;;;;;;;;;;30.81;48.10;101417.94;5068644;27;68933;-33
2021/03/08 02:05:49;;;;;;;;;;;;;;;30.81;48.19;101415.22;5066698;27;66142;-35
2021/03/08 02:08:19;;;;;;;;;;;;;;;30.83;48.08;101421.28;5068990;27;69092;-32
2021/03/08 02:10:48;;;;;;;;;;;;;;;30.87;47.58;101422.50;5067577;27;66142;-32
2021/03/08 02:13:36;;;;;;;;;;;;;;;30.86;47.74;101431.69;5066242;27;70223;-35
2021/03/08 02:16:14;;;;;;;;;;;;;;;30.85;47.79;101435.44;5067817;27;65275;-34
2021/03/08 02:18:43;;;;;;;;;;;;;;;30.89;47.47;101432.09;5067259;28;69856;-34
2021/03/08 02:21:30;;;;;;;;;;;;;;;30.92;47.34;101436.28;5052266;28;66862;-34
2021/03/08 02:24:14;;;;;;;;;;;;;;;30.90;47.79;101436.50;5070202;27;69447;-34
2021/03/08 02:26:56;;;;;;;;;;;;;;;30.94;47.24;101437.72;5061055;27;65967;-35
2021/03/08 02:30:00;;;;;;;;;;;;;;;30.95;47.35;101435.84;5069687;27;70151;-33
2021/03/08 02:32:32;;;;;;;;;;;;;;;30.97;47.58;101431.06;5029676;28;66879;-33
2021/03/08 02:35:10;;;;;;;;;;;;;;;30.98;47.56;101430.03;5060089;28;69663;-32
2021/03/08 02:37:41;;;;;;;;;;;;;;;31.03;47.43;101437.53;5064863;27;66001;-34
2021/03/08 02:40:17;;;;;;;;;;;;;;;31.06;47.36;101432.53;5056441;28;69855;-34
2021/03/08 02:42:50;;;;;;;;;;;;;;;31.07;47.29;101436.91;5058586;27;65661;-36
2021/03/08 02:45:27;;;;;;;;;;;;;;;31.10;46.87;101438.38;5065608;27;69819;-34
2021/03/08 02:47:57;;;;;;;;;;;;;;;31.13;47.13;101421.69;5069743;27;66233;-34
2021/03/08 02:50:33;;;;;;;;;;;;;;;31.16;46.68;101422.09;5103909;27;70000;-33
2021/03/08 02:53:07;;;;;;;;;;;;;;;31.16;46.68;101424.81;5063260;28;66266;-32
2021/03/08 02:55:44;;;;;;;;;;;;;;;31.21;46.55;101428.78;5062366;27;70722;-32
2021/03/08 02:58:16;;;;;;;;;;;;;;;31.23;46.54;101429.38;5061491;27;66264;-34
2021/03/08 03:00:53;;;;;;;;;;;;;;;31.23;46.72;101432.09;5066616;27;69771;-34
2021/03/08 03:03:22;;;;;;;;;;;;;;;31.28;46.64;101429.59;5060061;27;67044;-34
2021/03/08 03:05:54;;;;;;;;;;;;;;;31.31;46.37;101434.59;5077483;27;69817;-34
2021/03/08 03:08:24;;;;;;;;;;;;;;;31.33;46.71;101422.50;5079105;28;65249;-34
2021/03/08 03:10:54;;;;;;;;;;;;;;;31.33;46.29;101416.25;5075296;27;69602;-34
2021/03/08 03:13:24;;;;;;;;;;;;;;;31.38;46.04;101421.91;5068888;27;66124;-35
2021/03/08 03:15:55;;;;;;;;;;;;;;;31.39;46.39;101421.69;5062446;27;69196;-34
2021/03/08 03:18:26;;;;;;;;;;;;;;;31.36;46.38;101411.25;5079900;27;65539;-34
2021/03/08 03:20:56;;;;;;;;;;;;;;;31.42;46.38;101415.00;5060940;27;69295;-35
2021/03/08 03:23:27;;;;;;;;;;;;;;;31.45;46.43;101413.75;5064924;28;65492;-34
2021/03/08 03:25:56;;;;;;;;;;;;;;;31.47;45.69;101412.50;5062962;27;69988;-33
2021/03/08 03:28:26;;;;;;;;;;;;;;;31.50;46.24;101412.06;5059128;28;65520;-34
2021/03/08 03:30:57;;;;;;;;;;;;;;;31.53;46.20;101410.81;5063370;27;70840;-33
2021/03/08 03:33:27;;;;;;;;;;;;;;;31.58;45.85;101402.88;5068677;27;66271;-32
2021/03/08 03:35:57;;;;;;;;;;;;;;;31.61;45.42;101408.72;5066757;27;68908;-34
2021/03/08 03:38:26;;;;;;;;;;;;;;;31.63;46.04;101394.13;5071280;27;65531;-33
2021/03/08 03:40:56;;;;;;;;;;;;;;;31.65;45.39;101392.00;5075132;28;69941;-34
2021/03/08 03:43:25;;;;;;;;;;;;;;;31.68;45.29;101386.16;5071400;27;64973;-34
2021/03/08 03:45:54;;;;;;;;;;;;;;;31.72;45.76;101388.25;5067839;28;68782;-34
2021/03/08 03:48:23;;;;;;;;;;;;;;;31.76;45.09;101380.50;5073025;28;66160;-35
2021/03/08 03:50:52;;;;;;;;;;;;;;;31.77;44.99;101380.28;5076421;27;70015;-35
2021/03/08 03:53:22;;;;;;;;;;;;;;;31.79;45.00;101380.09;5077680;27;66270;-34
2021/03/08 03:55:53;;;;;;;;;;;;;;;31.85;45.05;101371.09;5076612;28;69092;-34
2021/03/08 03:58:25;;;;;;;;;;;;;;;31.89;44.88;101360.63;5073318;27;66074;-36
2021/03/08 04:00:58;;;;;;;;;;;;;;;31.90;45.39;101363.13;5074794;28;68959;-34
2021/03/08 04:03:33;;;;;;;;;;;;;;;31.93;45.24;101361.88;5075296;27;66204;-35
2021/03/08 04:06:05;;;;;;;;;;;;;;;31.95;45.23;101352.47;5073098;27;69741;-34
2021/03/08 04:08:35;;;;;;;;;;;;;;;31.98;44.74;101349.34;5079428;27;66132;-34
2021/03/08 04:11:04;;;;;;;;;;;;;;;32.01;44.54;101335.34;5074801;28;68998;-35
2021/03/08 04:13:34;;;;;;;;;;;;;;;32.03;44.95;101340.53;5076923;28;65492;-35
2021/03/08 04:16:03;;;;;;;;;;;;;;;32.05;44.96;101339.28;5074727;28;69392;-34
2021/03/08 04:18:34;;;;;;;;;;;;;;;32.08;44.70;101326.34;5074400;28;66318;-35
2021/03/08 04:21:03;;;;;;;;;;;;;;;32.11;44.69;101315.03;5075000;28;70257;-35
2021/03/08 04:23:32;;;;;;;;;;;;;;;32.12;44.81;101308.56;5076229;28;66325;-35
2021/03/08 04:26:02;;;;;;;;;;;;;;;32.13;44.92;101307.53;5075117;27;70296;-34
2021/03/08 04:28:31;;;;;;;;;;;;;;;32.16;44.42;101312.50;5074561;28;65646;-34
2021/03/08 04:31:00;;;;;;;;;;;;;;;32.18;44.83;101302.25;5074620;27;70019;-34
2021/03/08 04:33:30;;;;;;;;;;;;;;;32.14;44.87;101295.59;5075229;27;65697;-36
2021/03/08 04:36:00;;;;;;;;;;;;;;;32.20;44.28;101286.56;5069411;28;70156;-34
2021/03/08 04:38:29;;;;;;;;;;;;;;;32.23;44.75;101286.13;5072931;27;66178;-37
2021/03/08 04:40:59;;;;;;;;;;;;;;;32.24;44.50;101276.97;5078247;27;70672;-36
2021/03/08 04:43:28;;;;;;;;;;;;;;;32.29;44.13;101269.00;5074947;28;66008;-34
2021/03/08 04:45:57;;;;;;;;;;;;;;;32.33;44.34;101266.66;5073072;27;69899;-37
2021/03/08 04:48:27;;;;;;;;;;;;;;;32.28;44.15;101259.16;5072763;27;67142;-36
2021/03/08 04:50:57;;;;;;;;;;;;;;;32.34;44.08;101244.69;5068307;28;70072;-35
2021/03/08 04:53:26;;;;;;;;;;;;;;;32.36;44.20;101250.75;5076736;27;65350;-35
2021/03/08 04:55:56;;;;;;;;;;;;;;;32.39;43.86;101242.16;5079707;27;70038;-35
2021/03/08 04:58:25;;;;;;;;;;;;;;;32.41;43.84;101240.06;5072742;27;67188;-35
2021/03/08 05:00:55;;;;;;;;;;;;;;;32.41;43.83;101234.63;5079336;27;69296;-34
2021/03/08 05:03:26;;;;;;;;;;;;;;;32.44;43.87;101234.19;5074256;27;66970;-34
2021/03/08 05:05:57;;;;;;;;;;;;;;;32.46;44.18;101220.41;5074795;27;69758;-38
2021/03/08 05:08:27;;;;;;;;;;;;;;;32.48;43.81;101213.72;5076053;27;66489;-35
2021/03/08 05:10:58;;;;;;;;;;;;;;;32.56;44.06;101203.59;5074924;27;69827;-36
2021/03/08 05:13:27;;;;;;;;;;;;;;;32.56;43.94;101195.47;5076289;27;65248;-33
2021/03/08 05:15:59;;;;;;;;;;;;;;;32.56;43.99;101188.13;5059904;27;70141;-35
2021/03/08 05:18:29;;;;;;;;;;;;;;;32.62;44.11;101191.84;5062856;27;66422;-35
2021/03/08 05:20:59;;;;;;;;;;;;;;;32.60;43.90;101166.81;5073331;27;69944;-34
2021/03/08 05:23:29;;;;;;;;;;;;;;;32.66;43.73;101176.78;5074792;27;65454;-34
2021/03/08 05:26:02;;;;;;;;;;;;;;;32.70;43.29;101173.34;5065111;28;68879;-36
2021/03/08 05:28:31;;;;;;;;;;;;;;;32.68;43.56;101163.75;5065189;27;66323;-35
2021/03/08 05:31:00;;;;;;;;;;;;;;;32.78;43.37;101153.22;5074138;28;69125;-35
2021/03/08 05:33:31;;;;;;;;;;;;;;;32.74;43.24;101151.19;5073507;27;65453;-38
2021/03/08 05:36:01;;;;;;;;;;;;;;;32.77;43.14;101146.13;5061040;27;69312;-34
2021/03/08 05:38:31;;;;;;;;;;;;;;;32.77;43.02;101124.41;5072010;27;66205;-35
2021/03/08 05:41:03;;;;;;;;;;;;;;;32.81;43.36;101122.88;5072101;27;69582;-36
2021/03/08 05:43:34;;;;;;;;;;;;;;;32.89;43.16;101121.75;5068214;27;67377;-37
2021/03/08 05:46:08;;;;;;;;;;;;;;;32.91;43.04;101119.63;5063624;27;70334;-35
2021/03/08 05:48:47;;;;;;;;;;;;;;;32.89;42.97;101111.69;5056513;27;66151;-36
2021/03/08 05:51:25;;;;;;;;;;;;;;;32.93;42.96;101102.03;5081694;27;68971;-36
2021/03/08 05:54:00;;;;;;;;;;;;;;;32.96;43.15;101092.59;5092203;27;65823;-39
2021/03/08 05:56:47;;;;;;;;;;;;;;;32.96;42.74;101089.03;5063452;28;69757;-37
2021/03/08 05:59:31;;;;;;;;;;;;;;;33.04;42.71;101091.47;5063197;28;66084;-39
2021/03/08 06:02:21;;;;;;;;;;;;;;;33.07;42.69;101082.84;5060611;28;69258;-35
2021/03/08 06:05:09;;;;;;;;;;;;;;;33.11;42.84;101070.47;5073179;27;66306;-34
2021/03/08 06:08:07;;;;;;;;;;;;;;;33.10;42.87;101066.09;5093343;27;69416;-34
2021/03/08 06:10:40;;;;;;;;;;;;;;;33.16;42.63;101062.47;5061695;27;65629;-35
2021/03/08 06:13:10;;;;;;;;;;;;;;;33.15;42.86;101047.19;5058368;27;69668;-39
2021/03/08 06:15:43;;;;;;;;;;;;;;;33.21;42.54;101046.28;5062693;27;66073;-36
2021/03/08 06:18:12;;;;;;;;;;;;;;;33.25;42.47;101039.31;5059572;28;70837;-33
2021/03/08 06:20:42;;;;;;;;;;;;;;;33.29;42.40;101031.50;5063876;27;65435;-35
2021/03/08 06:23:15;;;;;;;;;;;;;;;33.26;42.60;101019.19;5062692;27;70754;-36
2021/03/08 06:25:46;;;;;;;;;;;;;;;33.35;42.49;101017.81;5061208;28;67291;-36
2021/03/08 06:28:15;;;;;;;;;;;;;;;33.36;42.19;101014.03;5062754;27;69306;-33
2021/03/08 06:30:44;;;;;;;;;;;;;;;33.41;42.14;101009.78;5068828;27;66325;-37
2021/03/08 06:33:13;;;;;;;;;;;;;;;33.43;42.42;101007.66;5071412;27;69631;-40
2021/03/08 06:35:42;;;;;;;;;;;;;;;33.49;42.16;101003.97;5059698;27;66673;-37
2021/03/08 06:38:11;;;;;;;;;;;;;;;33.51;42.01;100996.41;5057548;27;69149;-35
2021/03/08 06:40:40;;;;;;;;;;;;;;;33.52;42.26;100989.94;5073165;27;65308;-36
2021/03/08 06:43:09;;;;;;;;;;;;;;;33.55;42.04;100975.91;5059682;27;69129;-37
2021/03/08 06:45:38;;;;;;;;;;;;;;;33.58;41.79;100973.53;5058219;28;66631;-37
2021/03/08 06:48:08;;;;;;;;;;;;;;;33.62;41.92;100964.88;5073344;27;69214;-35
2021/03/08 06:50:37;;;;;;;;;;;;;;;33.67;41.82;100960.38;5076175;27;66371;-36
2021/03/08 06:53:06;;;;;;;;;;;;;;;33.70;41.57;100949.03;5073276;27;69983;-35
2021/03/08 06:55:35;;;;;;;;;;;;;;;33.74;41.76;100949.38;5062385;27;66932;-36
2021/03/08 06:58:17;;;;;;;;;;;;;;;33.78;41.77;100945.94;5086665;27;69250;-36
2021/03/08 07:00:46;;;;;;;;;;;;;;;33.81;41.79;100940.03;5061316;28;65425;-35
2021/03/08 07:03:32;;;;;;;;;;;;;;;33.82;41.71;100946.28;5068076;27;68967;-36
2021/03/08 07:06:17;;;;;;;;;;;;;;;33.88;41.56;100936.34;5061979;28;65942;-35
2021/03/08 07:08:47;;;;;;;;;;;;;;;33.90;41.68;100932.31;5067813;27;68847;-37
2021/03/08 07:11:22;;;;;;;;;;;;;;;33.91;41.10;100912.22;5057421;27;66780;-35
2021/03/08 07:13:58;;;;;;;;;;;;;;;33.94;41.53;100910.91;5062080;27;70441;-36
2021/03/08 07:16:35;;;;;;;;;;;;;;;33.98;41.26;100906.63;5091066;27;67136;-36
2021/03/08 07:19:06;;;;;;;;;;;;;;;34.06;41.40;100902.75;5060311;27;70742;-36
2021/03/08 07:21:35;;;;;;;;;;;;;;;34.11;41.19;100894.69;5067202;28;65361;-39
2021/03/08 07:24:11;;;;;;;;;;;;;;;34.16;41.04;100887.44;5062881;27;70522;-36
2021/03/08 07:26:51;;;;;;;;;;;;;;;34.20;41.18;100899.47;5060020;28;66160;-34
2021/03/08 07:29:21;;;;;;;;;;;;;;;34.26;41.08;100892.22;5067147;27;70046;-35
2021/03/08 07:31:52;;;;;;;;;;;;;;;34.29;41.06;100888.19;5063392;27;66841;-36
2021/03/08 07:34:46;;;;;;;;;;;;;;;34.26;40.79;100884.06;5069965;27;69099;-35
2021/03/08 07:37:15;;;;;;;;;;;;;;;34.34;40.62;100871.97;5062033;27;66891;-37
2021/03/08 07:39:51;;;;;;;;;;;;;;;34.33;40.96;100876.59;5090847;27;68100;-36
2021/03/08 07:42:20;;;;;;;;;;;;;;;34.36;40.79;100869.84;5058139;27;65669;-35
2021/03/08 07:44:50;;;;;;;;;;;;;;;34.39;40.70;100861.16;5059979;28;69867;-36
2021/03/08 07:47:20;;;;;;;;;;;;;;;34.37;40.46;100864.13;5062721;27;66180;-36
2021/03/08 07:49:49;;;;;;;;;;;;;;;34.44;40.47;100856.63;5060178;27;69980;-33
2021/03/08 07:52:18;;;;;;;;;;;;;;;34.44;40.49;100864.81;5068479;27;66161;-35
2021/03/08 07:54:51;;;;;;;;;;;;;;;34.48;40.54;100863.22;5068954;27;69977;-36
2021/03/08 07:57:20;;;;;;;;;;;;;;;34.53;40.63;100854.34;5072569;27;66294;-37
2021/03/08 07:59:49;;;;;;;;;;;;;;;34.55;40.38;100841.31;5068933;27;70299;-35
2021/03/08 08:02:19;;;;;;;;;;;;;;;34.56;40.49;100848.44;5059826;28;66985;-36
2021/03/08 08:05:02;;;;;;;;;;;;;;;34.57;40.58;100831.00;5101690;27;70728;-37
2021/03/08 08:07:32;;;;;;;;;;;;;;;34.62;40.08;100836.53;5059144;27;67338;-36
2021/03/08 08:10:03;;;;;;;;;;;;;;;34.61;40.39;100834.91;5061722;27;69752;-35
2021/03/08 08:12:33;;;;;;;;;;;;;;;34.68;40.41;100830.09;5060333;27;65620;-36
2021/03/08 08:15:11;;;;;;;;;;;;;;;34.74;40.14;100827.44;5055176;27;70188;-39
2021/03/08 08:17:41;;;;;;;;;;;;;;;34.82;40.15;100833.31;5097390;27;66342;-35
2021/03/08 08:20:11;;;;;;;;;;;;;;;34.83;40.20;100825.97;5059730;28;69960;-35
2021/03/08 08:23:06;;;;;;;;;;;;;;;34.85;39.97;100829.25;5072608;28;65588;-36
2021/03/08 08:25:37;;;;;;;;;;;;;;;34.88;39.91;100817.88;5076713;27;69631;-35
2021/03/08 08:28:06;;;;;;;;;;;;;;;34.88;39.72;100828.75;5075504;27;67339;-35
2021/03/08 08:30:35;;;;;;;;;;;;;;;35.01;39.61;100822.97;5077553;28;70446;-36
2021/03/08 08:33:04;;;;;;;;;;;;;;;35.04;39.57;100822.47;5069085;27;66307;-35
2021/03/08 08:35:38;;;;;;;;;;;;;;;35.07;39.64;100824.72;5060981;27;69096;-36
2021/03/08 08:38:07;;;;;;;;;;;;;;;34.98;40.03;100812.56;5062106;27;65855;-38
2021/03/08 08:40:37;;;;;;;;;;;;;;;35.12;39.39;100832.97;5061571;28;70330;-34
2021/03/08 08:43:15;;;;;;;;;;;;;;;35.18;39.59;100822.16;5073216;27;66122;-36
2021/03/08 08:45:45;;;;;;;;;;;;;;;35.17;39.54;100821.34;5079377;27;69870;-35
2021/03/08 08:48:14;;;;;;;;;;;;;;;35.24;39.75;100815.69;5073537;27;65410;-34
2021/03/08 08:50:43;;;;;;;;;;;;;;;35.35;39.66;100828.38;5092716;27;69075;-35
2021/03/08 08:53:12;;;;;;;;;;;;;;;35.37;39.66;100815.31;5073376;27;65973;-36
2021/03/08 08:55:42;;;;;;;;;;;;;;;35.38;39.68;100816.16;5077236;27;70649;-35
2021/03/08 08:58:21;;;;;;;;;;;;;;;35.44;39.29;100820.59;5075053;27;67105;-35
2021/03/08 09:01:09;;;;;;;;;;;;;;;35.50;39.54;100825.88;5066046;27;69973;-34
2021/03/08 09:03:58;;;;;;;;;;;;;;;35.50;39.41;100827.78;5069696;27;66311;-37
2021/03/08 09:06:39;;;;;;;;;;;;;;;35.53;39.79;100825.34;5077000;27;69826;-35
2021/03/08 09:09:08;;;;;;;;;;;;;;;35.56;39.25;100827.59;5076058;27;66414;-35
2021/03/08 09:12:03;;;;;;;;;;;;;;;35.58;39.64;100833.66;5070869;27;70302;-37
2021/03/08 09:14:46;;;;;;;;;;;;;;;35.61;39.48;100836.91;5073339;27;65634;-36
2021/03/08 09:17:21;;;;;;;;;;;;;;;35.70;39.66;100840.88;5074810;27;69503;-35
2021/03/08 09:19:56;;;;;;;;;;;;;;;35.71;39.22;100837.06;5072004;28;65111;-36
2021/03/08 09:22:28;;;;;;;;;;;;;;;35.78;39.00;100832.25;5066957;27;69959;-36
2021/03/08 09:24:58;;;;;;;;;;;;;;;35.84;39.46;100831.22;5072865;27;66155;-36
2021/03/08 09:27:34;;;;;;;;;;;;;;;35.89;39.26;100844.09;5065242;28;69300;-37
2021/03/08 09:30:11;;;;;;;;;;;;;;;35.88;39.39;100839.69;5067748;28;66401;-36
2021/03/08 09:33:06;;;;;;;;;;;;;;;35.88;39.26;100840.53;5067315;27;70064;-36
2021/03/08 09:35:39;;;;;;;;;;;;;;;35.85;38.97;100838.31;5070267;27;66694;-36
2021/03/08 09:38:11;;;;;;;;;;;;;;;35.86;39.00;100839.97;5069066;27;70536;-37
2021/03/08 09:40:51;;;;;;;;;;;;;;;35.90;39.27;100849.28;5069026;27;66901;-35
2021/03/08 09:43:22;;;;;;;;;;;;;;;35.85;39.17;100851.97;5069360;28;70352;-37
2021/03/08 09:46:00;;;;;;;;;;;;;;;35.89;39.12;100844.94;5074668;27;65541;-35
2021/03/08 09:48:30;;;;;;;;;;;;;;;35.99;39.04;100855.94;5106517;27;69523;-36
2021/03/08 09:51:03;;;;;;;;;;;;;;;35.95;39.34;100849.34;5069768;28;65750;-36
2021/03/08 09:53:36;;;;;;;;;;;;;;;35.93;39.37;100856.97;5069798;28;69914;-39
2021/03/08 09:56:09;;;;;;;;;;;;;;;35.99;39.02;100855.13;5070685;27;66288;-35
2021/03/08 09:58:38;;;;;;;;;;;;;;;35.97;39.22;100860.84;5069339;27;69416;-36
2021/03/08 10:01:14;;;;;;;;;;;;;;;35.90;39.20;100862.13;5068238;28;66216;-38
2021/03/08 10:03:48;;;;;;;;;;;;;;;35.89;39.10;100866.75;5066254;28;69220;-35
2021/03/08 10:06:26;;;;;;;;;;;;;;;35.93;39.05;100867.88;5066657;28;66189;-35
2021/03/08 10:08:55;;;;;;;;;;;;;;;35.87;39.50;100868.91;5067671;27;67799;-37
2021/03/08 10:11:28;;;;;;;;;;;;;;;35.79;39.13;100874.81;5065342;27;66954;-37
2021/03/08 10:13:58;;;;;;;;;;;;;;;35.88;39.37;100876.00;5067211;27;71364;-35
2021/03/08 10:16:28;;;;;;;;;;;;;;;35.84;39.32;100877.63;5069049;27;65295;-35
2021/03/08 10:19:07;;;;;;;;;;;;;;;35.84;39.38;100885.81;5066992;27;69354;-35
2021/03/08 10:21:45;;;;;;;;;;;;;;;35.88;39.71;100897.03;5060156;27;66984;-36
2021/03/08 10:24:31;;;;;;;;;;;;;;;35.85;39.55;100892.91;5064737;27;70499;-35
2021/03/08 10:27:00;;;;;;;;;;;;;;;35.82;39.47;100898.88;5071919;27;65489;-38
2021/03/08 10:29:31;;;;;;;;;;;;;;;35.75;39.81;100898.25;5071317;27;67994;-35
2021/03/08 10:32:03;;;;;;;;;;;;;;;35.69;39.92;100907.41;5071331;28;68862;-38
2021/03/08 10:34:33;;;;;;;;;;;;;;;35.76;39.54;100911.63;5070291;27;70478;-35
2021/03/08 10:37:19;;;;;;;;;;;;;;;35.73;39.90;100911.31;5070093;28;66097;-36
2021/03/08 10:39:51;;;;;;;;;;;;;;;35.79;39.60;100910.28;5072971;27;70488;-37
2021/03/08 10:42:21;;;;;;;;;;;;;;;35.78;39.70;100916.84;5075496;27;66270;-36
2021/03/08 10:44:51;;;;;;;;;;;;;;;35.73;40.00;100916.78;5070632;27;70096;-36
2021/03/08 10:47:20;;;;;;;;;;;;;;;35.69;39.78;100923.78;5072975;27;65373;-36
2021/03/08 10:49:51;;;;;;;;;;;;;;;35.68;39.60;100933.06;5068657;27;69281;-37
2021/03/08 10:52:20;;;;;;;;;;;;;;;35.55;40.24;100937.78;5075041;28;66405;-36
2021/03/08 10:54:49;;;;;;;;;;;;;;;35.57;40.02;100934.81;5075359;27;68941;-34
2021/03/08 10:57:21;;;;;;;;;;;;;;;35.62;40.15;100926.72;5075200;27;66148;-34
2021/03/08 10:59:53;;;;;;;;;;;;;;;35.54;40.24;100936.13;5073480;27;70362;-37
2021/03/08 11:02:22;;;;;;;;;;;;;;;35.36;40.93;100939.97;5067221;27;66622;-38
2021/03/08 11:05:10;;;;;;;;;;;;;;;35.09;41.76;100939.81;5072843;27;70055;-36
2021/03/08 11:07:39;;;;;;;;;;;;;;;34.92;42.59;100949.84;5073898;27;66398;-38
2021/03/08 11:10:09;;;;;;;;;;;;;;;34.69;42.81;100951.66;5073776;27;70430;-37
2021/03/08 11:12:39;;;;;;;;;;;;;;;34.78;43.23;100940.34;5071173;27;66448;-39
2021/03/08 11:15:08;;;;;;;;;;;;;;;34.67;43.73;100956.50;5070492;28;69544;-36
2021/03/08 11:17:41;;;;;;;;;;;;;;;34.65;44.03;100950.47;5072072;28;66326;-35
2021/03/08 11:20:15;;;;;;;;;;;;;;;34.59;42.82;100959.63;5067424;27;69013;-37
2021/03/08 11:22:56;;;;;;;;;;;;;;;34.48;42.44;100960.47;5075426;27;65213;-34
2021/03/08 11:25:46;;;;;;;;;;;;;;;34.40;42.21;100963.56;5076032;27;69252;-37
2021/03/08 11:28:16;;;;;;;;;;;;;;;34.29;42.32;100956.28;5077045;28;65380;-35
2021/03/08 11:30:46;;;;;;;;;;;;;;;34.20;42.41;100958.56;5078493;28;70370;-34
2021/03/08 11:33:15;;;;;;;;;;;;;;;34.09;42.67;100971.13;5072817;27;66659;-36
2021/03/08 11:35:50;;;;;;;;;;;;;;;34.19;42.29;100963.19;5069134;28;69793;-37
2021/03/08 11:38:22;;;;;;;;;;;;;;;34.15;42.39;100972.88;5073025;27;65601;-37
2021/03/08 11:40:51;;;;;;;;;;;;;;;34.10;42.38;100975.53;5069122;28;69221;-34
2021/03/08 11:43:22;;;;;;;;;;;;;;;34.09;42.40;100983.91;5061136;27;66478;-37
2021/03/08 11:45:51;;;;;;;;;;;;;;;34.01;42.78;100982.34;5073161;28;69051;-38
2021/03/08 11:48:22;;;;;;;;;;;;;;;34.01;42.93;100990.50;5061473;27;65954;-37
2021/03/08 11:50:52;;;;;;;;;;;;;;;34.00;42.92;100988.88;5072269;27;70099;-39
2021/03/08 11:53:21;;;;;;;;;;;;;;;34.04;42.86;100990.03;5078881;27;66275;-35
2021/03/08 11:55:50;;;;;;;;;;;;;;;34.01;43.01;101004.13;5078118;27;69335;-36
2021/03/08 11:58:19;;;;;;;;;;;;;;;33.91;43.47;101002.03;5066918;27;67031;-37
2021/03/08 12:00:48;;;;;;;;;;;;;;;33.90;43.52;101008.50;5064796;27;69618;-39
2021/03/08 12:03:17;;;;;;;;;;;;;;;34.05;44.15;101008.06;5068631;27;66699;-34
2021/03/08 12:05:46;;;;;;;;;;;;;;;33.87;42.34;101019.06;5070541;27;69907;-37
2021/03/08 12:08:26;;;;;;;;;;;;;;;33.62;42.33;101016.56;5069699;27;66531;-35
2021/03/08 12:10:55;;;;;;;;;;;;;;;33.43;42.35;101023.97;5068744;27;69839;-36
2021/03/08 12:13:24;;;;;;;;;;;;;;;33.23;42.64;101025.09;5061594;28;65795;-35
2021/03/08 12:15:54;;;;;;;;;;;;;;;32.92;42.39;101018.84;5051288;28;69933;-34
2021/03/08 12:18:23;;;;;;;;;;;;;;;33.07;43.15;101036.66;5056875;28;66625;-35
2021/03/08 12:20:52;;;;;;;;;;;;;;;33.02;42.91;101040.06;5048465;28;71437;-35
2021/03/08 12:23:20;;;;;;;;;;;;;;;33.00;41.77;101041.38;5054879;28;65548;-38
2021/03/08 12:25:53;;;;;;;;;;;;;;;33.04;41.12;101053.41;5036846;28;69782;-39
2021/03/08 12:28:22;;;;;;;;;;;;;;;32.76;41.65;101051.25;5048070;28;67319;-35
2021/03/08 12:30:51;;;;;;;;;;;;;;;32.65;41.28;101061.00;5042462;28;69226;-37
2021/03/08 12:33:21;;;;;;;;;;;;;;;32.50;40.76;101061.41;5046264;28;65519;-39
2021/03/08 12:35:50;;;;;;;;;;;;;;;32.41;39.78;101068.19;5045183;28;70338;-37
2021/03/08 12:38:38;;;;;;;;;;;;;;;32.41;39.15;101073.59;5047029;28;66319;-34
2021/03/08 12:41:07;;;;;;;;;;;;;;;32.31;39.06;101067.88;5049718;28;69649;-36
2021/03/08 12:43:36;;;;;;;;;;;;;;;32.25;38.77;101075.03;5046040;28;65402;-41
2021/03/08 12:46:05;;;;;;;;;;;;;;;32.21;39.73;101076.53;5046768;28;70387;-35
2021/03/08 12:48:34;;;;;;;;;;;;;;;32.16;41.03;101084.53;5047029;28;65056;-36
2021/03/08 12:51:04;;;;;;;;;;;;;;;32.01;40.86;101084.84;5050968;28;69468;-42
2021/03/08 12:53:33;;;;;;;;;;;;;;;31.98;40.60;101094.31;5046161;28;66220;-38
2021/03/08 12:56:05;;;;;;;;;;;;;;;32.01;40.05;101093.84;5029066;28;70580;-32
2021/03/08 12:58:38;;;;;;;;;;;;;;;31.98;39.59;101094.31;5042771;28;66716;-35
2021/03/08 13:01:09;;;;;;;;;;;;;;;31.87;39.52;101100.41;5047087;28;70457;-34